createdAt,value
2019-01-25T00:01:09.454Z,58.45
2019-01-25T00:03:38.247Z,62.88
2019-01-25T00:06:06.440Z,61.92
2019-01-25T00:08:34.660Z,61.08
2019-01-25T00:11:02.855Z,61.30
2019-01-25T00:13:31.060Z,58.13
2019-01-25T00:15:59.260Z,61.20
2019-01-25T00:18:27.485Z,58.68
2019-01-25T00:20:56.003Z,64.12
2019-01-25T00:23:24.267Z,61.95
2019-01-25T00:25:52.474Z,63.70
2019-01-25T00:28:20.674Z,66.65
2019-01-25T00:30:48.898Z,60.40
2019-01-25T00:33:17.112Z,59.40
2019-01-25T00:35:45.324Z,59.50
2019-01-25T00:38:13.537Z,57.65
2019-01-25T00:40:42.065Z,59.85
2019-01-25T00:43:10.421Z,61.70
2019-01-25T00:45:38.971Z,59.70
2019-01-25T00:48:07.253Z,60.92
2019-01-25T00:50:35.466Z,55.90
2019-01-25T00:53:04.626Z,60.58
2019-01-25T00:55:32.863Z,58.85
2019-01-25T00:58:01.066Z,61.45
2019-01-25T01:00:29.337Z,59.40
2019-01-25T01:02:57.554Z,54.30
2019-01-25T01:05:25.762Z,59.30
2019-01-25T01:07:53.964Z,54.05
2019-01-25T01:10:22.187Z,58.87
2019-01-25T01:12:50.827Z,61.35
2019-01-25T01:15:19.436Z,56.95
2019-01-25T01:17:47.647Z,61.55
2019-01-25T01:20:18.451Z,58.63
2019-01-25T01:22:46.655Z,60.60
2019-01-25T01:25:14.901Z,61.58
2019-01-25T01:27:43.142Z,61.73
2019-01-25T01:30:14.548Z,56.05
2019-01-25T01:32:42.767Z,63.83
2019-01-25T01:35:10.967Z,66.55
2019-01-25T01:37:39.179Z,72.42
2019-01-25T01:40:13.321Z,67.22
2019-01-25T01:42:41.546Z,69.30
2019-01-25T01:45:09.747Z,60.80
2019-01-25T01:47:37.962Z,68.37
2019-01-25T01:50:09.470Z,64.27
2019-01-25T01:52:37.684Z,63.40
2019-01-25T01:55:06.552Z,69.95
2019-01-25T01:57:34.777Z,65.50
2019-01-25T02:00:03.287Z,64.58
2019-01-25T02:02:31.471Z,64.70
2019-01-25T02:04:59.679Z,68.78
2019-01-25T02:07:27.892Z,74.40
2019-01-25T02:09:56.101Z,76.47
2019-01-25T02:12:24.324Z,70.65
2019-01-25T02:14:52.523Z,74.95
2019-01-25T02:17:20.735Z,71.85
2019-01-25T02:19:48.935Z,74.60
2019-01-25T02:22:17.160Z,72.03
2019-01-25T02:24:45.367Z,75.40
2019-01-25T02:27:13.590Z,75.52
2019-01-25T02:29:41.783Z,71.75
2019-01-25T02:32:09.983Z,79.90
2019-01-25T02:34:38.208Z,81.72
2019-01-25T02:37:06.404Z,78.92
2019-01-25T02:39:34.622Z,84.83
2019-01-25T02:42:02.825Z,79.58
2019-01-25T02:44:31.045Z,80.15
2019-01-25T02:46:59.250Z,71.50
2019-01-25T02:49:27.493Z,76.70
2019-01-25T02:51:55.665Z,78.92
2019-01-25T02:54:23.885Z,77.95
2019-01-25T02:56:52.091Z,80.38
2019-01-25T02:59:20.303Z,82.85
2019-01-25T03:01:48.518Z,75.17
2019-01-25T03:04:16.795Z,72.08
2019-01-25T03:06:44.999Z,77.10
2019-01-25T03:09:13.216Z,81.08
2019-01-25T03:11:41.423Z,78.22
2019-01-25T03:14:09.637Z,80.60
2019-01-25T03:16:37.835Z,77.45
2019-01-25T03:19:06.061Z,72.22
2019-01-25T03:21:34.261Z,76.67
2019-01-25T03:24:02.482Z,81.85
2019-01-25T03:26:30.721Z,80.83
2019-01-25T03:28:58.947Z,81.17
2019-01-25T03:31:27.155Z,76.95
2019-01-25T03:33:55.387Z,72.55
2019-01-25T03:36:23.640Z,79.47
2019-01-25T03:38:51.898Z,78.12
2019-01-25T03:41:20.114Z,84.47
2019-01-25T03:43:48.318Z,75.60
2019-01-25T03:46:16.549Z,78.92
2019-01-25T03:48:44.749Z,87.15
2019-01-25T03:51:12.964Z,84.03
2019-01-25T03:53:41.945Z,86.65
2019-01-25T03:56:10.167Z,78.45
2019-01-25T03:58:38.367Z,82.42
2019-01-25T04:01:06.579Z,82.50
2019-01-25T04:03:34.788Z,78.60
2019-01-25T04:06:03.085Z,79.85
2019-01-25T04:08:31.289Z,83.30
2019-01-25T04:11:03.641Z,84.50
2019-01-25T04:13:29.440Z,79.10
2019-01-25T04:15:57.660Z,81.65
2019-01-25T04:18:25.866Z,76.33
2019-01-25T04:20:54.079Z,81.78
2019-01-25T04:23:22.301Z,73.72
2019-01-25T04:25:50.508Z,82.57
2019-01-25T04:28:18.727Z,81.82
2019-01-25T04:30:46.950Z,89.72
2019-01-25T04:33:15.151Z,89.35
2019-01-25T04:35:43.355Z,84.70
2019-01-25T04:38:11.580Z,81.60
2019-01-25T04:40:39.792Z,85.07
2019-01-25T04:43:08.018Z,87.50
2019-01-25T04:45:36.227Z,88.33
2019-01-25T04:48:04.436Z,83.72
2019-01-25T04:50:32.636Z,88.07
2019-01-25T04:53:00.857Z,89.10
2019-01-25T04:55:30.817Z,82.90
2019-01-25T04:58:13.236Z,85.22
2019-01-25T05:00:41.443Z,86.50
2019-01-25T05:03:09.668Z,82.88
2019-01-25T05:05:37.870Z,84.77
2019-01-25T05:08:19.303Z,86.37
2019-01-25T05:10:47.507Z,81.37
2019-01-25T05:13:15.740Z,88.72
2019-01-25T05:15:43.937Z,83.50
2019-01-25T05:18:12.155Z,90.75
2019-01-25T05:20:40.359Z,76.22
2019-01-25T05:23:09.106Z,89.15
2019-01-25T05:25:37.304Z,85.12
2019-01-25T05:28:13.889Z,86.32
2019-01-25T05:30:50.524Z,84.30
2019-01-25T05:33:18.736Z,88.58
2019-01-25T05:35:46.944Z,78.70
2019-01-25T05:38:15.170Z,95.30
2019-01-25T05:40:43.367Z,95.53
2019-01-25T05:43:11.602Z,90.38
2019-01-25T05:45:45.969Z,99.62
2019-01-25T05:48:14.215Z,86.02
2019-01-25T05:50:42.434Z,90.15
2019-01-25T05:53:10.656Z,93.97
2019-01-25T05:55:38.867Z,89.92
2019-01-25T05:58:08.516Z,94.62
2019-01-25T06:00:38.379Z,88.52
2019-01-25T06:03:11.658Z,94.77
2019-01-25T06:05:39.878Z,99.40
2019-01-25T06:08:31.698Z,92.35
2019-01-25T06:11:05.522Z,92.40
2019-01-25T06:13:33.730Z,97.55
2019-01-25T06:16:01.953Z,86.30
2019-01-25T06:18:30.164Z,94.20
2019-01-25T06:20:58.848Z,97.02
2019-01-25T06:23:27.071Z,97.35
2019-01-25T06:25:57.033Z,97.78
2019-01-25T06:28:25.314Z,102.20
2019-01-25T06:30:53.803Z,95.30
2019-01-25T06:33:22.055Z,82.25
2019-01-25T06:35:50.304Z,87.90
2019-01-25T06:38:18.514Z,92.75
2019-01-25T06:40:46.735Z,98.42
2019-01-25T06:43:14.935Z,86.25
2019-01-25T06:45:43.224Z,92.60
2019-01-25T06:48:11.434Z,91.28
2019-01-25T06:50:39.653Z,86.42
2019-01-25T06:53:07.856Z,82.30
2019-01-25T06:55:36.068Z,94.15
2019-01-25T06:58:11.723Z,90.50
2019-01-25T07:00:44.251Z,88.00
2019-01-25T07:03:12.529Z,83.42
2019-01-25T07:05:40.751Z,87.15
2019-01-25T07:08:10.591Z,88.82
2019-01-25T07:10:38.807Z,92.53
2019-01-25T07:13:07.007Z,84.97
2019-01-25T07:15:35.907Z,88.00
2019-01-25T07:18:04.117Z,86.70
2019-01-25T07:20:32.711Z,91.12
2019-01-25T07:23:01.787Z,87.08
2019-01-25T07:25:30.003Z,87.95
2019-01-25T07:27:58.206Z,86.87
2019-01-25T07:30:26.413Z,90.97
2019-01-25T07:32:54.635Z,81.80
2019-01-25T07:35:22.832Z,89.62
2019-01-25T07:37:51.771Z,80.72
2019-01-25T07:40:20.016Z,89.10
2019-01-25T07:42:48.574Z,86.72
2019-01-25T07:45:16.821Z,94.70
2019-01-25T07:47:45.043Z,87.08
2019-01-25T07:50:13.370Z,90.25
2019-01-25T07:52:41.595Z,87.90
2019-01-25T07:55:15.317Z,89.25
2019-01-25T07:57:43.534Z,84.85
2019-01-25T08:00:16.342Z,92.50
2019-01-25T08:02:44.722Z,90.55
2019-01-25T08:05:13.091Z,94.28
2019-01-25T08:07:41.332Z,89.92
2019-01-25T08:10:15.636Z,82.78
2019-01-25T08:12:43.913Z,88.62
2019-01-25T08:15:18.356Z,80.25
2019-01-25T08:17:46.566Z,83.35
2019-01-25T08:20:14.760Z,90.40
2019-01-25T08:22:43.090Z,81.70
2019-01-25T08:25:11.405Z,78.25
2019-01-25T08:27:39.673Z,84.90
2019-01-25T08:30:19.312Z,83.72
2019-01-25T08:32:47.570Z,83.37
2019-01-25T08:35:15.971Z,87.12
2019-01-25T08:37:44.244Z,80.05
2019-01-25T08:40:16.947Z,88.20
2019-01-25T08:42:45.316Z,88.47
2019-01-25T08:45:16.016Z,79.30
2019-01-25T08:50:27.817Z,83.37
2019-01-25T08:52:56.227Z,79.90
2019-01-25T08:55:24.543Z,83.50
2019-01-25T08:57:52.935Z,83.00
2019-01-25T09:00:22.965Z,76.28
2019-01-25T09:02:51.255Z,77.55
2019-01-25T09:05:19.532Z,77.55
2019-01-25T09:07:47.735Z,80.72
2019-01-25T09:10:21.200Z,79.05
2019-01-25T09:12:49.404Z,79.53
2019-01-25T09:15:22.905Z,73.30
2019-01-25T09:17:51.098Z,71.45
2019-01-25T09:20:21.046Z,79.15
2019-01-25T09:22:49.249Z,75.78
2019-01-25T09:25:17.545Z,77.03
2019-01-25T09:27:46.390Z,80.67
2019-01-25T09:30:16.955Z,73.45
2019-01-25T09:32:45.138Z,75.97
2019-01-25T09:35:13.428Z,76.70
2019-01-25T09:37:41.621Z,71.53
2019-01-25T09:40:13.134Z,75.75
2019-01-25T09:42:41.332Z,70.28
2019-01-25T09:45:11.483Z,74.82
2019-01-25T09:47:39.679Z,72.30
2019-01-25T09:50:13.487Z,61.90
2019-01-25T09:52:41.683Z,71.28
2019-01-25T09:55:12.744Z,68.72
2019-01-25T09:57:40.957Z,76.33
2019-01-25T10:00:21.066Z,73.70
2019-01-25T10:02:49.266Z,75.72
2019-01-25T10:05:17.476Z,68.20
2019-01-25T10:07:45.678Z,65.80
2019-01-25T10:10:14.159Z,69.47
2019-01-25T10:12:43.544Z,80.35
2019-01-25T10:15:17.819Z,66.07
2019-01-25T10:17:46.023Z,74.65
2019-01-25T10:20:14.245Z,68.57
2019-01-25T10:22:42.443Z,69.62
2019-01-25T10:25:10.904Z,66.47
2019-01-25T10:27:39.671Z,70.25
2019-01-25T10:30:22.553Z,67.00
2019-01-25T10:32:50.763Z,71.00
2019-01-25T10:35:18.968Z,67.80
2019-01-25T10:37:47.176Z,71.35
2019-01-25T10:40:17.315Z,64.12
2019-01-25T10:42:52.693Z,71.87
2019-01-25T10:45:27.024Z,65.15
2019-01-25T10:47:55.233Z,64.95
2019-01-25T10:50:23.442Z,67.70
2019-01-25T10:52:51.651Z,67.00
2019-01-25T10:55:19.922Z,63.42
2019-01-25T10:57:48.137Z,66.67
2019-01-25T11:00:20.579Z,72.62
2019-01-25T11:02:48.780Z,68.85
2019-01-25T11:05:19.444Z,68.05
2019-01-25T11:07:47.705Z,62.48
2019-01-25T11:10:15.964Z,66.60
2019-01-25T11:12:44.172Z,70.00
2019-01-25T11:15:15.511Z,63.87
2019-01-25T11:17:43.715Z,66.67
2019-01-25T11:20:20.259Z,69.17
2019-01-25T11:22:48.478Z,72.05
2019-01-25T11:25:19.519Z,65.22
2019-01-25T11:27:47.715Z,63.78
2019-01-25T11:30:16.869Z,66.65
2019-01-25T11:32:45.088Z,65.15
2019-01-25T11:35:13.294Z,59.40
2019-01-25T11:37:42.075Z,66.02
2019-01-25T11:40:19.513Z,67.82
2019-01-25T11:42:47.721Z,66.33
2019-01-25T11:45:15.943Z,66.00
2019-01-25T11:47:44.144Z,67.20
2019-01-25T11:50:15.068Z,65.75
2019-01-25T11:52:43.282Z,69.15
2019-01-25T11:55:12.332Z,66.85
2019-01-25T11:57:40.559Z,61.63
2019-01-25T12:00:13.529Z,66.77
2019-01-25T12:02:41.755Z,69.72
2019-01-25T12:05:12.191Z,68.75
2019-01-25T12:07:59.832Z,65.32
2019-01-25T12:10:32.139Z,68.97
2019-01-25T12:13:00.343Z,72.37
2019-01-25T12:15:28.548Z,72.37
2019-01-25T12:17:56.767Z,69.03
2019-01-25T12:20:29.802Z,70.08
2019-01-25T12:22:58.083Z,64.05
2019-01-25T12:25:26.341Z,73.92
2019-01-25T12:27:54.596Z,68.90
2019-01-25T12:30:30.952Z,67.90
2019-01-25T12:32:59.184Z,66.75
2019-01-25T12:35:29.930Z,69.05
2019-01-25T12:37:58.133Z,71.67
2019-01-25T12:40:26.339Z,64.82
2019-01-25T12:42:54.538Z,68.85
2019-01-25T12:45:30.008Z,65.08
2019-01-25T12:47:58.235Z,66.30
2019-01-25T12:50:38.556Z,59.98
2019-01-25T12:53:08.700Z,62.53
2019-01-25T12:55:36.913Z,63.23
2019-01-25T12:58:05.447Z,63.02
2019-01-25T13:00:33.923Z,65.95
2019-01-25T13:03:02.119Z,66.35
2019-01-25T13:05:30.339Z,62.80
2019-01-25T13:07:58.532Z,63.20
2019-01-25T13:10:27.785Z,64.97
2019-01-25T13:12:55.995Z,59.98
2019-01-25T13:15:24.206Z,61.65
2019-01-25T13:17:52.395Z,63.08
2019-01-25T13:20:29.088Z,64.50
2019-01-25T13:22:57.282Z,65.55
2019-01-25T13:25:25.487Z,63.80
2019-01-25T13:27:53.775Z,64.75
2019-01-25T13:30:29.917Z,64.85
2019-01-25T13:32:58.183Z,66.62
2019-01-25T13:35:27.596Z,65.30
2019-01-25T13:37:55.867Z,61.88
2019-01-25T13:40:26.468Z,67.53
2019-01-25T13:42:54.747Z,62.40
2019-01-25T13:45:23.436Z,59.42
2019-01-25T13:47:51.719Z,60.88
2019-01-25T13:50:22.312Z,66.42
2019-01-25T13:55:18.027Z,57.83
2019-01-25T13:57:46.233Z,63.87
2019-01-25T14:00:23.496Z,66.33
2019-01-25T14:02:51.697Z,63.42
2019-01-25T14:05:19.920Z,73.97
2019-01-25T14:07:48.113Z,59.20
2019-01-25T14:10:24.281Z,70.97
2019-01-25T14:12:52.475Z,56.30
2019-01-25T14:15:20.685Z,56.45
2019-01-25T14:17:48.894Z,62.45
2019-01-25T14:20:23.439Z,59.10
2019-01-25T14:22:51.971Z,60.05
2019-01-25T14:25:20.237Z,60.78
2019-01-25T14:27:48.453Z,59.23
2019-01-25T14:30:22.643Z,55.88
2019-01-25T14:32:50.847Z,56.75
2019-01-25T14:35:19.047Z,55.83
2019-01-25T14:37:47.393Z,59.18
2019-01-25T14:40:15.588Z,62.62
2019-01-25T14:42:43.804Z,55.25
2019-01-25T14:45:14.899Z,53.65
2019-01-25T14:47:43.111Z,60.90
2019-01-25T14:50:14.153Z,58.10
2019-01-25T14:52:42.360Z,58.78
2019-01-25T14:55:10.569Z,58.60
2019-01-25T14:57:39.051Z,61.42
2019-01-25T15:00:08.224Z,64.25
2019-01-25T15:02:36.436Z,65.67
2019-01-25T15:05:10.466Z,61.18
2019-01-25T15:07:38.672Z,63.85
2019-01-25T15:10:12.691Z,69.42
2019-01-25T15:12:40.910Z,67.05
2019-01-25T15:15:11.552Z,67.25
2019-01-25T15:17:39.776Z,67.75
2019-01-25T15:20:11.089Z,65.30
2019-01-25T15:22:39.301Z,67.47
2019-01-25T15:25:07.503Z,65.20
2019-01-25T15:27:35.732Z,63.75
2019-01-25T15:30:09.504Z,64.70
2019-01-25T15:32:37.720Z,65.15
2019-01-25T15:35:08.738Z,66.35
2019-01-25T15:37:37.229Z,62.65
2019-01-25T15:40:08.738Z,60.90
2019-01-25T15:42:36.945Z,65.78
2019-01-25T15:45:14.051Z,56.45
2019-01-25T15:47:42.263Z,60.17
2019-01-25T15:50:16.400Z,64.80
2019-01-25T15:52:44.640Z,55.90
2019-01-25T15:55:12.850Z,60.43
2019-01-25T15:57:41.068Z,58.92
2019-01-25T16:01:16.087Z,66.57
2019-01-25T16:03:44.308Z,61.55
2019-01-25T16:06:12.510Z,66.42
2019-01-25T16:08:40.723Z,58.83
2019-01-25T16:11:08.915Z,63.10
2019-01-25T16:13:37.139Z,62.08
2019-01-25T16:16:05.347Z,61.60
2019-01-25T16:18:33.628Z,59.93
2019-01-25T16:21:02.100Z,65.15
2019-01-25T16:23:31.584Z,61.75
2019-01-25T16:26:00.409Z,61.20
2019-01-25T16:28:28.687Z,58.25
2019-01-25T16:30:56.903Z,62.15
2019-01-25T16:33:25.112Z,57.80
2019-01-25T16:35:53.314Z,61.18
2019-01-25T16:38:21.523Z,62.15
2019-01-25T16:40:49.736Z,63.60
2019-01-25T16:43:17.936Z,63.98
2019-01-25T16:45:46.140Z,63.90
2019-01-25T16:48:14.632Z,60.83
2019-01-25T16:50:42.841Z,60.05
2019-01-25T16:53:11.109Z,65.65
2019-01-25T16:55:39.311Z,59.98
2019-01-25T16:58:07.506Z,58.42
2019-01-25T17:00:38.287Z,58.23
2019-01-25T17:03:06.555Z,64.60
2019-01-25T17:05:34.923Z,65.30
2019-01-25T17:08:04.159Z,59.60
2019-01-25T17:10:32.369Z,57.58
2019-01-25T17:13:00.563Z,62.93
2019-01-25T17:15:28.780Z,60.33
2019-01-25T17:17:56.968Z,58.90
2019-01-25T17:20:27.011Z,56.20
2019-01-25T17:22:55.219Z,64.85
2019-01-25T17:25:23.438Z,60.25
2019-01-25T17:27:51.634Z,61.15
2019-01-25T17:30:25.763Z,58.48
2019-01-25T17:32:55.300Z,62.25
2019-01-25T17:35:23.508Z,57.83
2019-01-25T17:37:51.982Z,59.73
2019-01-25T17:40:23.084Z,65.83
2019-01-25T17:42:51.280Z,63.60
2019-01-25T17:45:19.489Z,58.58
2019-01-25T17:47:47.684Z,58.95
2019-01-25T17:50:16.274Z,55.38
2019-01-25T17:52:44.459Z,59.95
2019-01-25T17:55:17.204Z,59.50
2019-01-25T17:57:45.403Z,59.65
2019-01-25T18:00:20.692Z,54.55
2019-01-25T18:02:48.888Z,55.70
2019-01-25T18:05:17.083Z,60.10
2019-01-25T18:07:45.296Z,62.25
2019-01-25T18:10:18.849Z,58.10
2019-01-25T18:12:47.049Z,61.53
2019-01-25T18:15:16.591Z,56.90
2019-01-25T18:17:44.818Z,58.50
2019-01-25T18:20:17.768Z,61.70
2019-01-25T18:22:45.977Z,62.20
2019-01-25T18:25:44.672Z,63.08
2019-01-25T18:28:37.100Z,61.63
2019-01-25T18:31:08.567Z,63.52
2019-01-25T18:33:36.774Z,69.35
2019-01-25T18:36:04.981Z,63.40
2019-01-25T18:38:33.182Z,57.65
2019-01-25T18:41:01.391Z,67.47
2019-01-25T18:43:29.592Z,59.25
2019-01-25T18:45:57.815Z,61.65
2019-01-25T18:48:26.579Z,56.70
2019-01-25T18:50:54.776Z,62.08
2019-01-25T18:53:23.248Z,55.67
2019-01-25T18:55:51.443Z,58.02
2019-01-25T18:58:19.664Z,57.23
2019-01-25T19:00:47.859Z,55.28
2019-01-25T19:03:16.359Z,56.50
2019-01-25T19:05:44.551Z,63.45
2019-01-25T19:08:12.779Z,62.23
2019-01-25T19:10:40.963Z,55.03
2019-01-25T19:13:09.176Z,62.95
2019-01-25T19:15:37.370Z,52.62
2019-01-25T19:18:05.708Z,54.80
2019-01-25T19:20:33.905Z,57.23
2019-01-25T19:23:02.112Z,52.93
2019-01-25T19:25:30.310Z,55.30
2019-01-25T19:27:58.521Z,56.55
2019-01-25T19:30:38.338Z,53.33
2019-01-25T19:33:06.551Z,48.55
2019-01-25T19:35:34.742Z,50.30
2019-01-25T19:38:02.965Z,52.50
2019-01-25T19:40:35.557Z,53.33
2019-01-25T19:43:04.907Z,50.67
2019-01-25T19:45:33.109Z,52.43
2019-01-25T19:48:01.321Z,55.30
2019-01-25T19:50:29.530Z,46.68
2019-01-25T19:52:57.720Z,54.20
2019-01-25T19:55:31.276Z,49.83
2019-01-25T19:58:01.215Z,48.63
2019-01-25T20:00:38.247Z,48.20
2019-01-25T20:03:07.019Z,55.12
2019-01-25T20:05:35.211Z,56.00
2019-01-25T20:08:03.419Z,46.37
2019-01-25T20:10:31.640Z,47.38
2019-01-25T20:12:59.831Z,53.65
2019-01-25T20:15:28.324Z,51.28
2019-01-25T20:17:56.852Z,44.65
2019-01-25T20:20:37.259Z,57.30
2019-01-25T20:23:05.999Z,49.80
2019-01-25T20:25:34.597Z,45.52
2019-01-25T20:28:03.246Z,51.65
2019-01-25T20:30:33.092Z,50.33
2019-01-25T20:33:02.799Z,45.60
2019-01-25T20:35:33.259Z,51.50
2019-01-25T20:40:28.976Z,49.88
2019-01-25T20:42:57.184Z,51.63
2019-01-25T20:45:31.776Z,49.08
2019-01-25T20:47:59.988Z,56.10
2019-01-25T20:50:30.047Z,51.18
2019-01-25T20:52:58.355Z,44.90
2019-01-25T20:55:26.563Z,49.65
2019-01-25T20:57:55.835Z,55.40
2019-01-25T21:00:32.759Z,46.08
2019-01-25T21:03:01.056Z,43.38
2019-01-25T21:05:29.273Z,48.08
2019-01-25T21:07:57.463Z,43.70
2019-01-25T21:10:26.037Z,45.80
2019-01-25T21:12:54.315Z,42.25
2019-01-25T21:15:25.103Z,48.08
2019-01-25T21:17:53.460Z,45.03
2019-01-25T21:20:36.518Z,53.25
2019-01-25T21:23:06.361Z,49.67
2019-01-25T21:25:34.545Z,51.37
2019-01-25T21:28:02.804Z,45.35
2019-01-25T21:30:33.141Z,45.28
2019-01-25T21:33:01.380Z,54.63
2019-01-25T21:35:29.577Z,45.95
2019-01-25T21:37:57.815Z,46.35
2019-01-25T21:40:28.161Z,48.05
2019-01-25T21:42:58.164Z,48.45
2019-01-25T21:45:28.981Z,44.48
2019-01-25T21:47:57.365Z,48.40
2019-01-25T21:50:34.453Z,45.60
2019-01-25T21:53:02.672Z,43.48
2019-01-25T21:55:30.868Z,36.30
2019-01-25T21:58:05.278Z,41.90
2019-01-25T22:00:31.193Z,38.02
2019-01-25T22:02:59.405Z,38.80
2019-01-25T22:05:27.590Z,39.55
2019-01-25T22:07:55.808Z,34.73
2019-01-25T22:10:32.755Z,37.73
2019-01-25T22:13:00.955Z,33.92
2019-01-25T22:15:29.161Z,36.13
2019-01-25T22:17:57.935Z,37.10
2019-01-25T22:20:27.781Z,38.98
2019-01-25T22:22:55.970Z,36.20
2019-01-25T22:25:24.315Z,33.88
2019-01-25T22:27:53.645Z,35.40
2019-01-25T22:30:24.586Z,34.50
2019-01-25T22:32:52.784Z,33.55
2019-01-25T22:35:20.985Z,34.70
2019-01-25T22:37:49.186Z,31.23
2019-01-25T22:40:19.538Z,34.73
2019-01-25T22:42:47.727Z,33.35
2019-01-25T22:45:18.475Z,27.27
2019-01-25T22:47:49.786Z,28.20
2019-01-25T22:50:23.713Z,34.85
2019-01-25T22:52:51.904Z,32.70
2019-01-25T22:55:21.375Z,30.48
2019-01-25T22:57:49.720Z,30.45
2019-01-25T23:00:54.491Z,28.05
2019-01-25T23:03:35.487Z,41.15
2019-01-25T23:06:26.797Z,29.30
2019-01-25T23:08:57.053Z,35.10
2019-01-25T23:11:25.245Z,30.68
2019-01-25T23:13:53.463Z,38.92
2019-01-25T23:16:21.663Z,34.18
2019-01-25T23:18:50.122Z,30.30
2019-01-25T23:21:18.323Z,32.03
2019-01-25T23:23:46.519Z,32.85
2019-01-25T23:26:14.758Z,36.45
2019-01-25T23:28:42.933Z,35.88
2019-01-25T23:31:11.139Z,36.93
2019-01-25T23:33:39.339Z,32.48
2019-01-25T23:36:07.562Z,35.58
2019-01-25T23:38:35.759Z,30.92
2019-01-25T23:41:04.043Z,31.85
2019-01-25T23:43:32.286Z,30.12
2019-01-25T23:46:00.481Z,30.37
2019-01-25T23:48:28.675Z,35.40
2019-01-25T23:50:57.650Z,29.70
2019-01-25T23:53:25.865Z,37.95
2019-01-25T23:55:54.093Z,34.30
2019-01-25T23:58:22.357Z,29.25
